Station Historical Data
Daily Summary for April 25, 2012 Units:  Both    English   Metric
« Previous Day
Next Day »
Daily Weekly Monthly Yearly Custom
  High: Low: Average:
Temperature: 80.2 °F /  26.8 °C 53.2 °F /  11.8 °C 66.9 °F /  19.4 °C
Dew Point: 65.0 °F /  18.3 °C 46.3 °F /  7.9 °C 55.7 °F /  13.2 °C
Humidity: 80% 56% 68%
Wind Speed: 16.0mph /  25.7km/h - 5.5mph /  8.9km/h
Wind Gust: 21.0mph /  33.8km/h - -
Wind- - SSW
Pressure: 29.85 in /  1010.7 hPa 29.73 in /  1006.7 hPa -
Precipitation: 0.00 in /  0 mm    
Historical Graphs
 
 
Tabular Data for April 25, 2012
Time Temperature Dew Point Pressure Wind Wind Speed Wind Gust Humidity Rainfall Rate (Hourly) Conditions
00:00 59.8 °F /  15.4 °C 47.2 °F /  8.4 °C 29.82in /  1009.7hPa South 2.0mph /  3.2km/h 5.0mph /  8km/h 63% 0.00in /  0mm
00:01 59.7 °F /  15.4 °C 47.1 °F /  8.4 °C 29.82in /  1009.7hPa SSW 4.0mph /  6.4km/h 4.0mph /  6.4km/h 63% 0.00in /  0mm
00:06 59.5 °F /  15.3 °C 46.9 °F /  8.3 °C 29.82in /  1009.7hPa SSW 2.0mph /  3.2km/h 6.0mph /  9.7km/h 63% 0.00in /  0mm
00:11 59.1 °F /  15.1 °C 47.0 °F /  8.3 °C 29.82in /  1009.7hPa SW 5.0mph /  8km/h 7.0mph /  11.3km/h 64% 0.00in /  0mm
00:16 58.9 °F /  14.9 °C 47.2 °F /  8.4 °C 29.82in /  1009.7hPa South 5.0mph /  8km/h 6.0mph /  9.7km/h 65% 0.00in /  0mm
00:21 58.7 °F /  14.8 °C 47.0 °F /  8.3 °C 29.82in /  1009.7hPa SW 4.0mph /  6.4km/h 5.0mph /  8km/h 65% 0.00in /  0mm
00:26 58.6 °F /  14.8 °C 46.9 °F /  8.3 °C 29.82in /  1009.7hPa SSE 4.0mph /  6.4km/h 7.0mph /  11.3km/h 65% 0.00in /  0mm
00:31 58.6 °F /  14.8 °C 47.3 °F /  8.5 °C 29.82in /  1009.7hPa South 4.0mph /  6.4km/h 6.0mph /  9.7km/h 66% 0.00in /  0mm
00:36 58.5 °F /  14.7 °C 47.2 °F /  8.4 °C 29.82in /  1009.7hPa SSW 4.0mph /  6.4km/h 8.0mph /  12.9km/h 66% 0.00in /  0mm
00:41 58.4 °F /  14.7 °C 47.1 °F /  8.4 °C 29.82in /  1009.7hPa SSW 3.0mph /  4.8km/h 5.0mph /  8km/h 66% 0.00in /  0mm
00:46 58.2 °F /  14.6 °C 47.3 °F /  8.5 °C 29.82in /  1009.7hPa SSE 2.0mph /  3.2km/h 4.0mph /  6.4km/h 67% 0.00in /  0mm
00:51 58.0 °F /  14.4 °C 47.1 °F /  8.4 °C 29.82in /  1009.7hPa SSW 2.0mph /  3.2km/h 4.0mph /  6.4km/h 67% 0.00in /  0mm
00:56 57.8 °F /  14.3 °C 46.9 °F /  8.3 °C 29.82in /  1009.7hPa SE 3.0mph /  4.8km/h 3.0mph /  4.8km/h 67% 0.00in /  0mm
01:01 57.7 °F /  14.3 °C 46.8 °F /  8.2 °C 29.82in /  1009.7hPa SSE 4.0mph /  6.4km/h 6.0mph /  9.7km/h 67% 0.00in /  0mm
01:06 57.7 °F /  14.3 °C 47.2 °F /  8.4 °C 29.82in /  1009.7hPa SE 3.0mph /  4.8km/h 4.0mph /  6.4km/h 68% 0.00in /  0mm
01:11 57.5 °F /  14.2 °C 47.0 °F /  8.3 °C 29.82in /  1009.7hPa SSE 2.0mph /  3.2km/h 4.0mph /  6.4km/h 68% 0.00in /  0mm
01:16 57.3 °F /  14.1 °C 46.8 °F /  8.2 °C 29.82in /  1009.7hPa South 4.0mph /  6.4km/h 5.0mph /  8km/h 68% 0.00in /  0mm
01:21 57.2 °F /  14 °C 46.8 °F /  8.2 °C 29.82in /  1009.7hPa SSE 3.0mph /  4.8km/h 4.0mph /  6.4km/h 68% 0.00in /  0mm
01:26 57.0 °F /  13.9 °C 46.9 °F /  8.3 °C 29.81in /  1009.4hPa SSE 3.0mph /  4.8km/h 4.0mph /  6.4km/h 69% 0.00in /  0mm
01:32 56.8 °F /  13.8 °C 46.8 °F /  8.2 °C 29.82in /  1009.7hPa South 1.0mph /  1.6km/h 3.0mph /  4.8km/h 69% 0.00in /  0mm
01:37 56.6 °F /  13.7 °C 46.9 °F /  8.3 °C 29.82in /  1009.7hPa SSE 1.0mph /  1.6km/h 2.0mph /  3.2km/h 70% 0.00in /  0mm
01:42 56.3 °F /  13.5 °C 46.7 °F /  8.2 °C 29.82in /  1009.7hPa SE 1.0mph /  1.6km/h 1.0mph /  1.6km/h 70% 0.00in /  0mm
01:47 55.7 °F /  13.2 °C 46.8 °F /  8.2 °C 29.82in /  1009.7hPa SE 1.0mph /  1.6km/h 1.0mph /  1.6km/h 72% 0.00in /  0mm
01:52 55.5 °F /  13.1 °C 46.6 °F /  8.1 °C 29.82in /  1009.7hPa ESE 2.0mph /  3.2km/h 2.0mph /  3.2km/h 72% 0.00in /  0mm
01:57 55.3 °F /  12.9 °C 46.8 °F /  8.2 °C 29.82in /  1009.7hPa ESE 2.0mph /  3.2km/h 3.0mph /  4.8km/h 73% 0.00in /  0mm
02:02 54.6 °F /  12.6 °C 46.5 °F /  8.1 °C 29.82in /  1009.7hPa SE 2.0mph /  3.2km/h 2.0mph /  3.2km/h 74% 0.00in /  0mm
02:07 54.3 °F /  12.4 °C 46.6 °F /  8.1 °C 29.82in /  1009.7hPa SE 1.0mph /  1.6km/h 2.0mph /  3.2km/h 75% 0.00in /  0mm
02:12 53.9 °F /  12.2 °C 46.5 °F /  8.1 °C 29.82in /  1009.7hPa SE 1.0mph /  1.6km/h 1.0mph /  1.6km/h 76% 0.00in /  0mm
02:17 53.8 °F /  12.1 °C 46.4 °F /  8 °C 29.82in /  1009.7hPa SE 1.0mph /  1.6km/h 1.0mph /  1.6km/h 76% 0.00in /  0mm
02:22 53.6 °F /  12 °C 46.6 °F /  8.1 °C 29.82in /  1009.7hPa SE 1.0mph /  1.6km/h 1.0mph /  1.6km/h 77% 0.00in /  0mm
02:27 53.4 °F /  11.9 °C 46.4 °F /  8 °C 29.82in /  1009.7hPa SE 1.0mph /  1.6km/h 2.0mph /  3.2km/h 77% 0.00in /  0mm
02:32 53.4 °F /  11.9 °C 46.4 °F /  8 °C 29.82in /  1009.7hPa SE 2.0mph /  3.2km/h 2.0mph /  3.2km/h 77% 0.00in /  0mm
02:37 53.4 °F /  11.9 °C 46.4 °F /  8 °C 29.82in /  1009.7hPa SSE 1.0mph /  1.6km/h 2.0mph /  3.2km/h 77% 0.00in /  0mm
02:42 53.3 °F /  11.8 °C 46.6 °F /  8.1 °C 29.82in /  1009.7hPa SE 1.0mph /  1.6km/h 2.0mph /  3.2km/h 78% 0.00in /  0mm
02:47 53.3 °F /  11.8 °C 46.3 °F /  7.9 °C 29.82in /  1009.7hPa SSE 2.0mph /  3.2km/h 2.0mph /  3.2km/h 77% 0.00in /  0mm
02:52 53.3 °F /  11.8 °C 46.6 °F /  8.1 °C 29.82in /  1009.7hPa SSE 1.0mph /  1.6km/h 2.0mph /  3.2km/h 78% 0.00in /  0mm
02:57 53.3 °F /  11.8 °C 46.3 °F /  7.9 °C 29.82in /  1009.7hPa SSE 1.0mph /  1.6km/h 2.0mph /  3.2km/h 77% 0.00in /  0mm
03:02 53.3 °F /  11.8 °C 46.6 °F /  8.1 °C 29.81in /  1009.4hPa SE 2.0mph /  3.2km/h 2.0mph /  3.2km/h 78% 0.00in /  0mm
03:07 53.2 °F /  11.8 °C 46.5 °F /  8.1 °C 29.81in /  1009.4hPa South 2.0mph /  3.2km/h 2.0mph /  3.2km/h 78% 0.00in /  0mm
03:13 53.3 °F /  11.8 °C 46.6 °F /  8.1 °C 29.81in /  1009.4hPa SSE 1.0mph /  1.6km/h 3.0mph /  4.8km/h 78% 0.00in /  0mm
03:18 53.2 °F /  11.8 °C 46.5 °F /  8.1 °C 29.81in /  1009.4hPa SSE 2.0mph /  3.2km/h 3.0mph /  4.8km/h 78% 0.00in /  0mm
03:23 53.2 °F /  11.8 °C 46.5 °F /  8.1 °C 29.81in /  1009.4hPa SSE 2.0mph /  3.2km/h 2.0mph /  3.2km/h 78% 0.00in /  0mm
03:28 53.3 °F /  11.8 °C 46.6 °F /  8.1 °C 29.81in /  1009.4hPa SSE 2.0mph /  3.2km/h 3.0mph /  4.8km/h 78% 0.00in /  0mm
03:33 53.4 °F /  11.9 °C 46.4 °F /  8 °C 29.81in /  1009.4hPa South 2.0mph /  3.2km/h 4.0mph /  6.4km/h 77% 0.00in /  0mm
03:38 53.6 °F /  12 °C 46.6 °F /  8.1 °C 29.81in /  1009.4hPa SSE 3.0mph /  4.8km/h 4.0mph /  6.4km/h 77% 0.00in /  0mm
03:43 53.8 °F /  12.1 °C 46.8 °F /  8.2 °C 29.81in /  1009.4hPa SSE 3.0mph /  4.8km/h 3.0mph /  4.8km/h 77% 0.00in /  0mm
03:48 54.0 °F /  12.2 °C 46.6 °F /  8.1 °C 29.81in /  1009.4hPa SSE 4.0mph /  6.4km/h 4.0mph /  6.4km/h 76% 0.00in /  0mm
03:53 54.6 °F /  12.6 °C 47.2 °F /  8.4 °C 29.81in /  1009.4hPa SSE 3.0mph /  4.8km/h 5.0mph /  8km/h 76% 0.00in /  0mm
03:58 55.0 °F /  12.8 °C 47.2 °F /  8.4 °C 29.81in /  1009.4hPa South 2.0mph /  3.2km/h 5.0mph /  8km/h 75% 0.00in /  0mm
04:03 55.3 °F /  12.9 °C 47.2 °F /  8.4 °C 29.81in /  1009.4hPa SSE 3.0mph /  4.8km/h 6.0mph /  9.7km/h 74% 0.00in /  0mm
04:08 55.7 °F /  13.2 °C 47.5 °F /  8.6 °C 29.81in /  1009.4hPa South 3.0mph /  4.8km/h 4.0mph /  6.4km/h 74% 0.00in /  0mm
04:13 55.9 °F /  13.3 °C 47.4 °F /  8.6 °C 29.81in /  1009.4hPa SSE 5.0mph /  8km/h 7.0mph /  11.3km/h 73% 0.00in /  0mm
04:18 56.2 °F /  13.4 °C 47.7 °F /  8.7 °C 29.81in /  1009.4hPa South 4.0mph /  6.4km/h 6.0mph /  9.7km/h 73% 0.00in /  0mm
04:23 56.3 °F /  13.5 °C 47.8 °F /  8.8 °C 29.81in /  1009.4hPa SSW 6.0mph /  9.7km/h 8.0mph /  12.9km/h 73% 0.00in /  0mm
04:28 56.4 °F /  13.6 °C 47.9 °F /  8.8 °C 29.81in /  1009.4hPa South 1.0mph /  1.6km/h 7.0mph /  11.3km/h 73% 0.00in /  0mm
04:33 56.4 °F /  13.6 °C 47.9 °F /  8.8 °C 29.81in /  1009.4hPa SW 2.0mph /  3.2km/h 7.0mph /  11.3km/h 73% 0.00in /  0mm
04:38 56.4 °F /  13.6 °C 47.9 °F /  8.8 °C 29.80in /  1009hPa SSW 3.0mph /  4.8km/h 6.0mph /  9.7km/h 73% 0.00in /  0mm
04:43 56.3 °F /  13.5 °C 48.1 °F /  8.9 °C 29.80in /  1009hPa SSE 2.0mph /  3.2km/h 4.0mph /  6.4km/h 74% 0.00in /  0mm
04:48 56.5 °F /  13.6 °C 48.0 °F /  8.9 °C 29.80in /  1009hPa SSW 3.0mph /  4.8km/h 5.0mph /  8km/h 73% 0.00in /  0mm
04:53 56.5 °F /  13.6 °C 48.0 °F /  8.9 °C 29.80in /  1009hPa SW 4.0mph /  6.4km/h 6.0mph /  9.7km/h 73% 0.00in /  0mm
04:58 56.3 °F /  13.5 °C 48.1 °F /  8.9 °C 29.80in /  1009hPa SW 2.0mph /  3.2km/h 4.0mph /  6.4km/h 74% 0.00in /  0mm
05:03 56.2 °F /  13.4 °C 48.0 °F /  8.9 °C 29.80in /  1009hPa SW 3.0mph /  4.8km/h 6.0mph /  9.7km/h 74% 0.00in /  0mm
05:08 56.2 °F /  13.4 °C 48.0 °F /  8.9 °C 29.80in /  1009hPa SSE 2.0mph /  3.2km/h 7.0mph /  11.3km/h 74% 0.00in /  0mm
05:13 56.0 °F /  13.3 °C 48.2 °F /  9 °C 29.80in /  1009hPa South 3.0mph /  4.8km/h 4.0mph /  6.4km/h 75% 0.00in /  0mm
05:18 55.9 °F /  13.3 °C 48.1 °F /  8.9 °C 29.80in /  1009hPa SSW 2.0mph /  3.2km/h 3.0mph /  4.8km/h 75% 0.00in /  0mm
05:23 55.9 °F /  13.3 °C 48.1 °F /  8.9 °C 29.80in /  1009hPa SSW 2.0mph /  3.2km/h 5.0mph /  8km/h 75% 0.00in /  0mm
05:28 55.8 °F /  13.2 °C 48.0 °F /  8.9 °C 29.80in /  1009hPa SW 4.0mph /  6.4km/h 4.0mph /  6.4km/h 75% 0.00in /  0mm
05:33 55.7 °F /  13.2 °C 48.3 °F /  9.1 °C 29.80in /  1009hPa SW 1.0mph /  1.6km/h 4.0mph /  6.4km/h 76% 0.00in /  0mm
05:38 55.6 °F /  13.1 °C 48.2 °F /  9 °C 29.80in /  1009hPa South 3.0mph /  4.8km/h 4.0mph /  6.4km/h 76% 0.00in /  0mm
05:43 55.4 °F /  13 °C 48.3 °F /  9.1 °C 29.81in /  1009.4hPa Calm   3.0mph /  4.8km/h 77% 0.00in /  0mm
05:49 55.3 °F /  12.9 °C 48.2 °F /  9 °C 29.80in /  1009hPa SSW 2.0mph /  3.2km/h 3.0mph /  4.8km/h 77% 0.00in /  0mm
05:54 55.4 °F /  13 °C 48.3 °F /  9.1 °C 29.81in /  1009.4hPa South 2.0mph /  3.2km/h 4.0mph /  6.4km/h 77% 0.00in /  0mm
05:55 55.4 °F /  13 °C 48.3 °F /  9.1 °C 29.81in /  1009.4hPa SSE 2.0mph /  3.2km/h 4.0mph /  6.4km/h 77% 0.00in /  0mm
06:00 55.3 °F /  12.9 °C 48.2 °F /  9 °C 29.81in /  1009.4hPa South 2.0mph /  3.2km/h 3.0mph /  4.8km/h 77% 0.00in /  0mm
06:05 55.4 °F /  13 °C 48.3 °F /  9.1 °C 29.81in /  1009.4hPa SSW 1.0mph /  1.6km/h 4.0mph /  6.4km/h 77% 0.00in /  0mm
06:10 55.3 °F /  12.9 °C 48.2 °F /  9 °C 29.81in /  1009.4hPa SSW 2.0mph /  3.2km/h 4.0mph /  6.4km/h 77% 0.00in /  0mm
06:15 55.3 °F /  12.9 °C 48.6 °F /  9.2 °C 29.81in /  1009.4hPa SSW 1.0mph /  1.6km/h 4.0mph /  6.4km/h 78% 0.00in /  0mm
06:16 55.3 °F /  12.9 °C 48.6 °F /  9.2 °C 29.81in /  1009.4hPa South 3.0mph /  4.8km/h 4.0mph /  6.4km/h 78% 0.00in /  0mm
06:21 55.2 °F /  12.9 °C 48.5 °F /  9.2 °C 29.81in /  1009.4hPa South 2.0mph /  3.2km/h 3.0mph /  4.8km/h 78% 0.00in /  0mm
06:26 55.2 °F /  12.9 °C 48.5 °F /  9.2 °C 29.81in /  1009.4hPa SW 4.0mph /  6.4km/h 5.0mph /  8km/h 78% 0.00in /  0mm
06:31 55.3 °F /  12.9 °C 48.6 °F /  9.2 °C 29.81in /  1009.4hPa South 3.0mph /  4.8km/h 4.0mph /  6.4km/h 78% 0.00in /  0mm
06:36 55.3 °F /  12.9 °C 48.6 °F /  9.2 °C 29.81in /  1009.4hPa SSW 6.0mph /  9.7km/h 6.0mph /  9.7km/h 78% 0.00in /  0mm
06:41 55.5 °F /  13.1 °C 48.8 °F /  9.3 °C 29.81in /  1009.4hPa SSW 2.0mph /  3.2km/h 6.0mph /  9.7km/h 78% 0.00in /  0mm
06:46 55.5 °F /  13.1 °C 48.8 °F /  9.3 °C 29.81in /  1009.4hPa SSW 1.0mph /  1.6km/h 4.0mph /  6.4km/h 78% 0.00in /  0mm
06:51 55.4 °F /  13 °C 48.7 °F /  9.3 °C 29.82in /  1009.7hPa Calm   5.0mph /  8km/h 78% 0.00in /  0mm
06:56 55.4 °F /  13 °C 48.7 °F /  9.3 °C 29.82in /  1009.7hPa South 3.0mph /  4.8km/h 4.0mph /  6.4km/h 78% 0.00in /  0mm
07:01 55.3 °F /  12.9 °C 48.9 °F /  9.4 °C 29.82in /  1009.7hPa South 3.0mph /  4.8km/h 3.0mph /  4.8km/h 79% 0.00in /  0mm
07:06 55.1 °F /  12.8 °C 48.7 °F /  9.3 °C 29.82in /  1009.7hPa SW 3.0mph /  4.8km/h 4.0mph /  6.4km/h 79% 0.00in /  0mm
07:11 55.0 °F /  12.8 °C 49.0 °F /  9.4 °C 29.82in /  1009.7hPa SSW 2.0mph /  3.2km/h 6.0mph /  9.7km/h 80% 0.00in /  0mm
07:16 55.0 °F /  12.8 °C 49.0 °F /  9.4 °C 29.83in /  1010hPa SW 2.0mph /  3.2km/h 5.0mph /  8km/h 80% 0.00in /  0mm
07:21 54.9 °F /  12.7 °C 48.9 °F /  9.4 °C 29.83in /  1010hPa SW 3.0mph /  4.8km/h 4.0mph /  6.4km/h 80% 0.00in /  0mm
07:26 54.9 °F /  12.7 °C 48.9 °F /  9.4 °C 29.83in /  1010hPa WSW 3.0mph /  4.8km/h 6.0mph /  9.7km/h 80% 0.00in /  0mm
07:31 55.1 °F /  12.8 °C 49.0 °F /  9.4 °C 29.83in /  1010hPa SW 4.0mph /  6.4km/h 6.0mph /  9.7km/h 80% 0.00in /  0mm
07:36 55.3 °F /  12.9 °C 49.2 °F /  9.6 °C 29.83in /  1010hPa SW 6.0mph /  9.7km/h 7.0mph /  11.3km/h 80% 0.00in /  0mm
07:41 55.5 °F /  13.1 °C 49.4 °F /  9.7 °C 29.83in /  1010hPa SW 6.0mph /  9.7km/h 6.0mph /  9.7km/h 80% 0.00in /  0mm
07:46 55.8 °F /  13.2 °C 49.7 °F /  9.8 °C 29.83in /  1010hPa SW 3.0mph /  4.8km/h 7.0mph /  11.3km/h 80% 0.00in /  0mm
07:51 56.1 °F /  13.4 °C 49.7 °F /  9.8 °C 29.83in /  1010hPa SW 5.0mph /  8km/h 8.0mph /  12.9km/h 79% 0.00in /  0mm
07:56 56.6 °F /  13.7 °C 50.2 °F /  10.1 °C 29.83in /  1010hPa SW 5.0mph /  8km/h 7.0mph /  11.3km/h 79% 0.00in /  0mm
08:01 56.9 °F /  13.8 °C 50.1 °F /  10.1 °C 29.83in /  1010hPa WSW 5.0mph /  8km/h 8.0mph /  12.9km/h 78% 0.00in /  0mm
08:07 57.1 °F /  13.9 °C 50.3 °F /  10.2 °C 29.84in /  1010.4hPa SW 4.0mph /  6.4km/h 9.0mph /  14.5km/h 78% 0.00in /  0mm
08:12 57.4 °F /  14.1 °C 50.6 °F /  10.3 °C 29.84in /  1010.4hPa WSW 8.0mph /  12.9km/h 8.0mph /  12.9km/h 78% 0.00in /  0mm
08:17 57.7 °F /  14.3 °C 50.9 °F /  10.5 °C 29.84in /  1010.4hPa SW 6.0mph /  9.7km/h 7.0mph /  11.3km/h 78% 0.00in /  0mm
08:22 57.9 °F /  14.4 °C 51.1 °F /  10.6 °C 29.84in /  1010.4hPa SW 5.0mph /  8km/h 9.0mph /  14.5km/h 78% 0.00in /  0mm
08:27 58.3 °F /  14.6 °C 51.1 °F /  10.6 °C 29.84in /  1010.4hPa SW 6.0mph /  9.7km/h 8.0mph /  12.9km/h 77% 0.00in /  0mm
08:32 58.7 °F /  14.8 °C 51.9 °F /  11.1 °C 29.84in /  1010.4hPa SW 6.0mph /  9.7km/h 9.0mph /  14.5km/h 78% 0.00in /  0mm
08:37 59.0 °F /  15 °C 51.8 °F /  11 °C 29.84in /  1010.4hPa SW 7.0mph /  11.3km/h 11.0mph /  17.7km/h 77% 0.00in /  0mm
08:42 59.4 °F /  15.2 °C 52.2 °F /  11.2 °C 29.84in /  1010.4hPa SW 6.0mph /  9.7km/h 8.0mph /  12.9km/h 77% 0.00in /  0mm
08:47 59.8 °F /  15.4 °C 52.6 °F /  11.4 °C 29.84in /  1010.4hPa SW 7.0mph /  11.3km/h 9.0mph /  14.5km/h 77% 0.00in /  0mm
08:52 60.2 °F /  15.7 °C 52.6 °F /  11.4 °C 29.84in /  1010.4hPa SW 8.0mph /  12.9km/h 9.0mph /  14.5km/h 76% 0.00in /  0mm
08:57 60.5 °F /  15.8 °C 52.9 °F /  11.6 °C 29.85in /  1010.7hPa SW 8.0mph /  12.9km/h 11.0mph /  17.7km/h 76% 0.00in /  0mm
09:02 60.9 °F /  16.1 °C 53.3 °F /  11.8 °C 29.84in /  1010.4hPa SW 6.0mph /  9.7km/h 10.0mph /  16.1km/h 76% 0.00in /  0mm
09:07 61.5 °F /  16.4 °C 53.5 °F /  11.9 °C 29.84in /  1010.4hPa SW 9.0mph /  14.5km/h 10.0mph /  16.1km/h 75% 0.00in /  0mm
09:12 61.9 °F /  16.6 °C 53.9 °F /  12.2 °C 29.85in /  1010.7hPa WSW 12.0mph /  19.3km/h 12.0mph /  19.3km/h 75% 0.00in /  0mm
09:17 62.2 °F /  16.8 °C 53.8 °F /  12.1 °C 29.85in /  1010.7hPa SW 8.0mph /  12.9km/h 11.0mph /  17.7km/h 74% 0.00in /  0mm
09:22 62.4 °F /  16.9 °C 54.0 °F /  12.2 °C 29.85in /  1010.7hPa West 5.0mph /  8km/h 11.0mph /  17.7km/h 74% 0.00in /  0mm
09:27 62.9 °F /  17.2 °C 54.5 °F /  12.5 °C 29.85in /  1010.7hPa WSW 7.0mph /  11.3km/h 11.0mph /  17.7km/h 74% 0.00in /  0mm
09:32 63.3 °F /  17.4 °C 54.9 °F /  12.7 °C 29.85in /  1010.7hPa SSW 6.0mph /  9.7km/h 11.0mph /  17.7km/h 74% 0.00in /  0mm
09:37 63.7 °F /  17.6 °C 54.9 °F /  12.7 °C 29.85in /  1010.7hPa SW 9.0mph /  14.5km/h 10.0mph /  16.1km/h 73% 0.00in /  0mm
09:42 63.7 °F /  17.6 °C 54.5 °F /  12.5 °C 29.85in /  1010.7hPa SW 12.0mph /  19.3km/h 12.0mph /  19.3km/h 72% 0.00in /  0mm
09:47 64.0 °F /  17.8 °C 55.6 °F /  13.1 °C 29.85in /  1010.7hPa WSW 4.0mph /  6.4km/h 11.0mph /  17.7km/h 74% 0.00in /  0mm
09:52 64.3 °F /  17.9 °C 55.1 °F /  12.8 °C 29.85in /  1010.7hPa SSW 14.0mph /  22.5km/h 14.0mph /  22.5km/h 72% 0.00in /  0mm
09:57 64.5 °F /  18.1 °C 55.7 °F /  13.2 °C 29.85in /  1010.7hPa WSW 7.0mph /  11.3km/h 13.0mph /  20.9km/h 73% 0.00in /  0mm
10:02 65.0 °F /  18.3 °C 56.5 °F /  13.6 °C 29.85in /  1010.7hPa WSW 4.0mph /  6.4km/h 12.0mph /  19.3km/h 74% 0.00in /  0mm
10:07 65.4 °F /  18.6 °C 56.5 °F /  13.6 °C 29.85in /  1010.7hPa SW 10.0mph /  16.1km/h 15.0mph /  24.1km/h 73% 0.00in /  0mm
10:12 65.6 °F /  18.7 °C 56.3 °F /  13.5 °C 29.85in /  1010.7hPa SW 10.0mph /  16.1km/h 12.0mph /  19.3km/h 72% 0.00in /  0mm
10:17 65.7 °F /  18.7 °C 56.8 °F /  13.8 °C 29.85in /  1010.7hPa WSW 7.0mph /  11.3km/h 13.0mph /  20.9km/h 73% 0.00in /  0mm
10:22 66.2 °F /  19 °C 57.3 °F /  14.1 °C 29.85in /  1010.7hPa West 3.0mph /  4.8km/h 12.0mph /  19.3km/h 73% 0.00in /  0mm
10:27 66.7 °F /  19.3 °C 57.4 °F /  14.1 °C 29.85in /  1010.7hPa SW 10.0mph /  16.1km/h 12.0mph /  19.3km/h 72% 0.00in /  0mm
10:32 66.8 °F /  19.3 °C 57.5 °F /  14.2 °C 29.85in /  1010.7hPa SW 11.0mph /  17.7km/h 11.0mph /  17.7km/h 72% 0.00in /  0mm
10:37 66.8 °F /  19.3 °C 57.1 °F /  13.9 °C 29.84in /  1010.4hPa SW 6.0mph /  9.7km/h 13.0mph /  20.9km/h 71% 0.00in /  0mm
10:43 67.1 °F /  19.5 °C 57.8 °F /  14.3 °C 29.84in /  1010.4hPa West 7.0mph /  11.3km/h 11.0mph /  17.7km/h 72% 0.00in /  0mm
10:48 67.4 °F /  19.7 °C 57.3 °F /  14.1 °C 29.84in /  1010.4hPa SW 11.0mph /  17.7km/h 17.0mph /  27.4km/h 70% 0.00in /  0mm
10:53 67.6 °F /  19.8 °C 58.7 °F /  14.8 °C 29.84in /  1010.4hPa WSW 10.0mph /  16.1km/h 13.0mph /  20.9km/h 73% 0.00in /  0mm
10:58 68.0 °F /  20 °C 58.3 °F /  14.6 °C 29.84in /  1010.4hPa SSW 7.0mph /  11.3km/h 13.0mph /  20.9km/h 71% 0.00in /  0mm
11:03 68.3 °F /  20.2 °C 58.5 °F /  14.7 °C 29.84in /  1010.4hPa SSW 10.0mph /  16.1km/h 13.0mph /  20.9km/h 71% 0.00in /  0mm
11:08 68.5 °F /  20.3 °C 58.3 °F /  14.6 °C 29.85in /  1010.7hPa WSW 9.0mph /  14.5km/h 13.0mph /  20.9km/h 70% 0.00in /  0mm
11:14 68.9 °F /  20.5 °C 59.5 °F /  15.3 °C 29.84in /  1010.4hPa SSW 10.0mph /  16.1km/h 10.0mph /  16.1km/h 72% 0.00in /  0mm
11:19 69.1 °F /  20.6 °C 59.3 °F /  15.2 °C 29.84in /  1010.4hPa WSW 7.0mph /  11.3km/h 15.0mph /  24.1km/h 71% 0.00in /  0mm
11:24 69.2 °F /  20.7 °C 59.4 °F /  15.2 °C 29.84in /  1010.4hPa SW 10.0mph /  16.1km/h 11.0mph /  17.7km/h 71% 0.00in /  0mm
11:29 69.3 °F /  20.7 °C 59.1 °F /  15.1 °C 29.84in /  1010.4hPa WSW 8.0mph /  12.9km/h 13.0mph /  20.9km/h 70% 0.00in /  0mm
11:34 69.7 °F /  20.9 °C 60.7 °F /  15.9 °C 29.84in /  1010.4hPa SW 11.0mph /  17.7km/h 14.0mph /  22.5km/h 73% 0.00in /  0mm
11:39 70.0 °F /  21.1 °C 60.2 °F /  15.7 °C 29.84in /  1010.4hPa SSW 5.0mph /  8km/h 11.0mph /  17.7km/h 71% 0.00in /  0mm
11:45 70.6 °F /  21.4 °C 60.3 °F /  15.7 °C 29.84in /  1010.4hPa SW 6.0mph /  9.7km/h 12.0mph /  19.3km/h 70% 0.00in /  0mm
11:50 70.9 °F /  21.6 °C 60.2 °F /  15.7 °C 29.84in /  1010.4hPa WSW 8.0mph /  12.9km/h 9.0mph /  14.5km/h 69% 0.00in /  0mm
11:55 71.1 °F /  21.7 °C 60.0 °F /  15.6 °C 29.83in /  1010hPa SSW 8.0mph /  12.9km/h 13.0mph /  20.9km/h 68% 0.00in /  0mm
12:00 71.1 °F /  21.7 °C 60.8 °F /  16 °C 29.83in /  1010hPa SW 8.0mph /  12.9km/h 12.0mph /  19.3km/h 70% 0.00in /  0mm
12:05 71.3 °F /  21.8 °C 60.6 °F /  15.9 °C 29.84in /  1010.4hPa SW 11.0mph /  17.7km/h 11.0mph /  17.7km/h 69% 0.00in /  0mm
12:11 71.6 °F /  22 °C 61.3 °F /  16.3 °C 29.84in /  1010.4hPa SW 8.0mph /  12.9km/h 10.0mph /  16.1km/h 70% 0.00in /  0mm
12:16 71.7 °F /  22.1 °C 60.6 °F /  15.9 °C 29.84in /  1010.4hPa SW 9.0mph /  14.5km/h 13.0mph /  20.9km/h 68% 0.00in /  0mm
12:21 72.0 °F /  22.2 °C 60.9 °F /  16.1 °C 29.83in /  1010hPa West 5.0mph /  8km/h 10.0mph /  16.1km/h 68% 0.00in /  0mm
12:26 72.3 °F /  22.4 °C 61.2 °F /  16.2 °C 29.83in /  1010hPa SW 5.0mph /  8km/h 10.0mph /  16.1km/h 68% 0.00in /  0mm
12:31 72.5 °F /  22.5 °C 60.9 °F /  16.1 °C 29.82in /  1009.7hPa South 8.0mph /  12.9km/h 12.0mph /  19.3km/h 67% 0.00in /  0mm
12:36 72.9 °F /  22.7 °C 61.3 °F /  16.3 °C 29.82in /  1009.7hPa SSE 7.0mph /  11.3km/h 10.0mph /  16.1km/h 67% 0.00in /  0mm
12:41 72.9 °F /  22.7 °C 61.3 °F /  16.3 °C 29.82in /  1009.7hPa SSW 6.0mph /  9.7km/h 10.0mph /  16.1km/h 67% 0.00in /  0mm
12:46 72.9 °F /  22.7 °C 60.9 °F /  16.1 °C 29.82in /  1009.7hPa SSW 6.0mph /  9.7km/h 13.0mph /  20.9km/h 66% 0.00in /  0mm
12:51 73.3 °F /  22.9 °C 61.7 °F /  16.5 °C 29.81in /  1009.4hPa SSW 5.0mph /  8km/h 10.0mph /  16.1km/h 67% 0.00in /  0mm
12:56 73.6 °F /  23.1 °C 62.0 °F /  16.7 °C 29.81in /  1009.4hPa SW 7.0mph /  11.3km/h 11.0mph /  17.7km/h 67% 0.00in /  0mm
13:01 73.9 °F /  23.3 °C 61.8 °F /  16.6 °C 29.81in /  1009.4hPa SSE 11.0mph /  17.7km/h 16.0mph /  25.7km/h 66% 0.00in /  0mm
13:07 74.1 °F /  23.4 °C 62.0 °F /  16.7 °C 29.80in /  1009hPa SSE 7.0mph /  11.3km/h 10.0mph /  16.1km/h 66% 0.00in /  0mm
13:12 74.5 °F /  23.6 °C 62.0 °F /  16.7 °C 29.80in /  1009hPa SE 7.0mph /  11.3km/h 9.0mph /  14.5km/h 65% 0.00in /  0mm
13:17 74.5 °F /  23.6 °C 62.0 °F /  16.7 °C 29.80in /  1009hPa SSE 6.0mph /  9.7km/h 11.0mph /  17.7km/h 65% 0.00in /  0mm
13:22 74.5 °F /  23.6 °C 62.0 °F /  16.7 °C 29.80in /  1009hPa SSE 5.0mph /  8km/h 14.0mph /  22.5km/h 65% 0.00in /  0mm
13:27 75.1 °F /  23.9 °C 63.4 °F /  17.4 °C 29.81in /  1009.4hPa South 9.0mph /  14.5km/h 16.0mph /  25.7km/h 67% 0.00in /  0mm
13:32 75.4 °F /  24.1 °C 64.1 °F /  17.8 °C 29.80in /  1009hPa SSE 11.0mph /  17.7km/h 11.0mph /  17.7km/h 68% 0.00in /  0mm
13:37 75.6 °F /  24.2 °C 61.7 °F /  16.5 °C 29.80in /  1009hPa South 14.0mph /  22.5km/h 15.0mph /  24.1km/h 62% 0.00in /  0mm
13:42 75.4 °F /  24.1 °C 62.4 °F /  16.9 °C 29.80in /  1009hPa South 7.0mph /  11.3km/h 16.0mph /  25.7km/h 64% 0.00in /  0mm
13:47 75.5 °F /  24.2 °C 62.9 °F /  17.2 °C 29.79in /  1008.7hPa SW 4.0mph /  6.4km/h 9.0mph /  14.5km/h 65% 0.00in /  0mm
13:52 76.1 °F /  24.5 °C 63.0 °F /  17.2 °C 29.79in /  1008.7hPa East 1.0mph /  1.6km/h 9.0mph /  14.5km/h 64% 0.00in /  0mm
13:57 76.2 °F /  24.6 °C 63.6 °F /  17.6 °C 29.79in /  1008.7hPa SSE 5.0mph /  8km/h 15.0mph /  24.1km/h 65% 0.00in /  0mm
14:02 76.1 °F /  24.5 °C 63.0 °F /  17.2 °C 29.80in /  1009hPa South 11.0mph /  17.7km/h 14.0mph /  22.5km/h 64% 0.00in /  0mm
14:07 76.6 °F /  24.8 °C 63.1 °F /  17.3 °C 29.79in /  1008.7hPa SE 9.0mph /  14.5km/h 12.0mph /  19.3km/h 63% 0.00in /  0mm
14:12 76.6 °F /  24.8 °C 62.6 °F /  17 °C 29.80in /  1009hPa SW 7.0mph /  11.3km/h 14.0mph /  22.5km/h 62% 0.00in /  0mm
14:17 77.0 °F /  25 °C 63.5 °F /  17.5 °C 29.79in /  1008.7hPa SSW 7.0mph /  11.3km/h 12.0mph /  19.3km/h 63% 0.00in /  0mm
14:22 76.9 °F /  24.9 °C 62.9 °F /  17.2 °C 29.79in /  1008.7hPa SW 11.0mph /  17.7km/h 15.0mph /  24.1km/h 62% 0.00in /  0mm
14:27 77.1 °F /  25.1 °C 63.5 °F /  17.5 °C 29.78in /  1008.4hPa SSW 6.0mph /  9.7km/h 9.0mph /  14.5km/h 63% 0.00in /  0mm
14:32 77.7 °F /  25.4 °C 64.6 °F /  18.1 °C 29.79in /  1008.7hPa SE 10.0mph /  16.1km/h 21.0mph /  33.8km/h 64% 0.00in /  0mm
14:37 77.9 °F /  25.5 °C 63.8 °F /  17.7 °C 29.79in /  1008.7hPa South 16.0mph /  25.7km/h 16.0mph /  25.7km/h 62% 0.00in /  0mm
14:42 78.2 °F /  25.7 °C 63.7 °F /  17.6 °C 29.78in /  1008.4hPa SSW 5.0mph /  8km/h 10.0mph /  16.1km/h 61% 0.00in /  0mm
14:48 78.3 °F /  25.7 °C 64.2 °F /  17.9 °C 29.78in /  1008.4hPa SW 5.0mph /  8km/h 12.0mph /  19.3km/h 62% 0.00in /  0mm
14:53 78.3 °F /  25.7 °C 64.2 °F /  17.9 °C 29.79in /  1008.7hPa SSW 6.0mph /  9.7km/h 14.0mph /  22.5km/h 62% 0.00in /  0mm
14:58 78.9 °F /  26.1 °C 64.8 °F /  18.2 °C 29.79in /  1008.7hPa SW 7.0mph /  11.3km/h 14.0mph /  22.5km/h 62% 0.00in /  0mm
15:03 79.3 °F /  26.3 °C 63.7 °F /  17.6 °C 29.78in /  1008.4hPa SSW 4.0mph /  6.4km/h 11.0mph /  17.7km/h 59% 0.00in /  0mm
15:08 79.1 °F /  26.2 °C 65.0 °F /  18.3 °C 29.78in /  1008.4hPa SSW 3.0mph /  4.8km/h 14.0mph /  22.5km/h 62% 0.00in /  0mm
15:13 79.5 °F /  26.4 °C 63.9 °F /  17.7 °C 29.78in /  1008.4hPa South 9.0mph /  14.5km/h 14.0mph /  22.5km/h 59% 0.00in /  0mm
15:18 79.5 °F /  26.4 °C 64.4 °F /  18 °C 29.78in /  1008.4hPa SE 5.0mph /  8km/h 12.0mph /  19.3km/h 60% 0.00in /  0mm
15:23 79.6 °F /  26.4 °C 64.0 °F /  17.8 °C 29.77in /  1008hPa SW 10.0mph /  16.1km/h 13.0mph /  20.9km/h 59% 0.00in /  0mm
15:28 79.6 °F /  26.4 °C 64.0 °F /  17.8 °C 29.77in /  1008hPa South 8.0mph /  12.9km/h 13.0mph /  20.9km/h 59% 0.00in /  0mm
15:33 79.6 °F /  26.4 °C 64.0 °F /  17.8 °C 29.77in /  1008hPa SSW 7.0mph /  11.3km/h 14.0mph /  22.5km/h 59% 0.00in /  0mm
15:38 80.0 °F /  26.7 °C 63.9 °F /  17.7 °C 29.77in /  1008hPa SSW 8.0mph /  12.9km/h 14.0mph /  22.5km/h 58% 0.00in /  0mm
15:43 79.9 °F /  26.6 °C 64.3 °F /  17.9 °C 29.77in /  1008hPa SW 9.0mph /  14.5km/h 16.0mph /  25.7km/h 59% 0.00in /  0mm
15:48 80.2 °F /  26.8 °C 63.6 °F /  17.6 °C 29.77in /  1008hPa WSW 11.0mph /  17.7km/h 14.0mph /  22.5km/h 57% 0.00in /  0mm
15:53 80.1 °F /  26.7 °C 63.5 °F /  17.5 °C 29.77in /  1008hPa SW 11.0mph /  17.7km/h 19.0mph /  30.6km/h 57% 0.00in /  0mm
15:58 80.1 °F /  26.7 °C 63.0 °F /  17.2 °C 29.78in /  1008.4hPa WSW 9.0mph /  14.5km/h 14.0mph /  22.5km/h 56% 0.00in /  0mm
16:03 80.0 °F /  26.7 °C 63.4 °F /  17.4 °C 29.78in /  1008.4hPa WSW 9.0mph /  14.5km/h 16.0mph /  25.7km/h 57% 0.00in /  0mm
16:08 79.3 °F /  26.3 °C 62.3 °F /  16.8 °C 29.78in /  1008.4hPa SSW 11.0mph /  17.7km/h 16.0mph /  25.7km/h 56% 0.00in /  0mm
16:13 78.7 °F /  25.9 °C 62.2 °F /  16.8 °C 29.79in /  1008.7hPa SW 6.0mph /  9.7km/h 15.0mph /  24.1km/h 57% 0.00in /  0mm
16:18 78.6 °F /  25.9 °C 63.6 °F /  17.6 °C 29.79in /  1008.7hPa SW 7.0mph /  11.3km/h 11.0mph /  17.7km/h 60% 0.00in /  0mm
16:23 78.9 °F /  26.1 °C 64.3 °F /  17.9 °C 29.79in /  1008.7hPa SW 9.0mph /  14.5km/h 17.0mph /  27.4km/h 61% 0.00in /  0mm
16:28 79.1 °F /  26.2 °C 63.6 °F /  17.6 °C 29.79in /  1008.7hPa West 7.0mph /  11.3km/h 13.0mph /  20.9km/h 59% 0.00in /  0mm
16:33 78.8 °F /  26 °C 62.8 °F /  17.1 °C 29.79in /  1008.7hPa WSW 10.0mph /  16.1km/h 17.0mph /  27.4km/h 58% 0.00in /  0mm
16:38 78.5 °F /  25.8 °C 63.5 °F /  17.5 °C 29.78in /  1008.4hPa West 9.0mph /  14.5km/h 17.0mph /  27.4km/h 60% 0.00in /  0mm
16:43 78.1 °F /  25.6 °C 62.6 °F /  17 °C 29.78in /  1008.4hPa SW 10.0mph /  16.1km/h 13.0mph /  20.9km/h 59% 0.00in /  0mm
16:48 77.9 °F /  25.5 °C 62.9 °F /  17.2 °C 29.78in /  1008.4hPa WSW 5.0mph /  8km/h 13.0mph /  20.9km/h 60% 0.00in /  0mm
16:53 77.7 °F /  25.4 °C 62.7 °F /  17.1 °C 29.78in /  1008.4hPa SSW 9.0mph /  14.5km/h 11.0mph /  17.7km/h 60% 0.00in /  0mm
16:58 77.6 °F /  25.3 °C 62.6 °F /  17 °C 29.78in /  1008.4hPa SW 11.0mph /  17.7km/h 12.0mph /  19.3km/h 60% 0.00in /  0mm
17:03 77.5 °F /  25.3 °C 63.0 °F /  17.2 °C 29.78in /  1008.4hPa SW 6.0mph /  9.7km/h 9.0mph /  14.5km/h 61% 0.00in /  0mm
17:08 77.4 °F /  25.2 °C 62.9 °F /  17.2 °C 29.78in /  1008.4hPa WSW 5.0mph /  8km/h 7.0mph /  11.3km/h 61% 0.00in /  0mm
17:13 77.3 °F /  25.2 °C 63.3 °F /  17.4 °C 29.78in /  1008.4hPa West 5.0mph /  8km/h 11.0mph /  17.7km/h 62% 0.00in /  0mm
17:18 77.2 °F /  25.1 °C 63.6 °F /  17.6 °C 29.78in /  1008.4hPa SW 2.0mph /  3.2km/h 8.0mph /  12.9km/h 63% 0.00in /  0mm
17:23 77.1 °F /  25.1 °C 63.5 °F /  17.5 °C 29.78in /  1008.4hPa SSW 5.0mph /  8km/h 11.0mph /  17.7km/h 63% 0.00in /  0mm
17:28 77.1 °F /  25.1 °C 63.5 °F /  17.5 °C 29.78in /  1008.4hPa WSW 6.0mph /  9.7km/h 8.0mph /  12.9km/h 63% 0.00in /  0mm
17:33 77.0 °F /  25 °C 63.5 °F /  17.5 °C 29.78in /  1008.4hPa WNW 4.0mph /  6.4km/h 11.0mph /  17.7km/h 63% 0.00in /  0mm
17:38 77.0 °F /  25 °C 63.9 °F /  17.7 °C 29.78in /  1008.4hPa SSW 5.0mph /  8km/h 10.0mph /  16.1km/h 64% 0.00in /  0mm
17:43 76.8 °F /  24.9 °C 63.3 °F /  17.4 °C 29.78in /  1008.4hPa SW 6.0mph /  9.7km/h 8.0mph /  12.9km/h 63% 0.00in /  0mm
17:48 76.6 °F /  24.8 °C 63.1 °F /  17.3 °C 29.78in /  1008.4hPa SSW 5.0mph /  8km/h 8.0mph /  12.9km/h 63% 0.00in /  0mm
17:53 76.4 °F /  24.7 °C 62.4 °F /  16.9 °C 29.77in /  1008hPa SW 6.0mph /  9.7km/h 7.0mph /  11.3km/h 62% 0.00in /  0mm
17:58 76.3 °F /  24.6 °C 61.9 °F /  16.6 °C 29.77in /  1008hPa South 5.0mph /  8km/h 10.0mph /  16.1km/h 61% 0.00in /  0mm
18:03 76.1 °F /  24.5 °C 62.2 °F /  16.8 °C 29.77in /  1008hPa SSW 3.0mph /  4.8km/h 7.0mph /  11.3km/h 62% 0.00in /  0mm
18:09 76.1 °F /  24.5 °C 62.6 °F /  17 °C 29.77in /  1008hPa South 5.0mph /  8km/h 8.0mph /  12.9km/h 63% 0.00in /  0mm
18:13 75.9 °F /  24.4 °C 62.4 °F /  16.9 °C 29.77in /  1008hPa South 6.0mph /  9.7km/h 9.0mph /  14.5km/h 63% 0.00in /  0mm
18:18 75.9 °F /  24.4 °C 62.4 °F /  16.9 °C 29.76in /  1007.7hPa SSW 5.0mph /  8km/h 10.0mph /  16.1km/h 63% 0.00in /  0mm
18:24 75.8 °F /  24.3 °C 62.3 °F /  16.8 °C 29.76in /  1007.7hPa SSE 5.0mph /  8km/h 7.0mph /  11.3km/h 63% 0.00in /  0mm
18:29 75.7 °F /  24.3 °C 62.2 °F /  16.8 °C 29.75in /  1007.3hPa SSW 6.0mph /  9.7km/h 10.0mph /  16.1km/h 63% 0.00in /  0mm
18:34 75.8 °F /  24.3 °C 62.3 °F /  16.8 °C 29.76in /  1007.7hPa SSW 7.0mph /  11.3km/h 12.0mph /  19.3km/h 63% 0.00in /  0mm
18:39 75.7 °F /  24.3 °C 62.2 °F /  16.8 °C 29.75in /  1007.3hPa SE 12.0mph /  19.3km/h 14.0mph /  22.5km/h 63% 0.00in /  0mm
18:44 75.7 °F /  24.3 °C 61.8 °F /  16.6 °C 29.75in /  1007.3hPa South 12.0mph /  19.3km/h 12.0mph /  19.3km/h 62% 0.00in /  0mm
18:49 75.7 °F /  24.3 °C 61.8 °F /  16.6 °C 29.74in /  1007hPa SSE 9.0mph /  14.5km/h 12.0mph /  19.3km/h 62% 0.00in /  0mm
18:54 76.1 °F /  24.5 °C 62.2 °F /  16.8 °C 29.74in /  1007hPa SSE 5.0mph /  8km/h 10.0mph /  16.1km/h 62% 0.00in /  0mm
18:59 76.3 °F /  24.6 °C 61.9 °F /  16.6 °C 29.74in /  1007hPa South 9.0mph /  14.5km/h 10.0mph /  16.1km/h 61% 0.00in /  0mm
19:04 76.3 °F /  24.6 °C 61.9 °F /  16.6 °C 29.74in /  1007hPa SSW 3.0mph /  4.8km/h 9.0mph /  14.5km/h 61% 0.00in /  0mm
19:09 76.2 °F /  24.6 °C 61.8 °F /  16.6 °C 29.73in /  1006.7hPa South 6.0mph /  9.7km/h 9.0mph /  14.5km/h 61% 0.00in /  0mm
19:14 75.9 °F /  24.4 °C 61.5 °F /  16.4 °C 29.73in /  1006.7hPa SSE 10.0mph /  16.1km/h 10.0mph /  16.1km/h 61% 0.00in /  0mm
19:19 75.7 °F /  24.3 °C 61.3 °F /  16.3 °C 29.73in /  1006.7hPa SSE 13.0mph /  20.9km/h 13.0mph /  20.9km/h 61% 0.00in /  0mm
19:24 75.6 °F /  24.2 °C 61.2 °F /  16.2 °C 29.73in /  1006.7hPa SW 5.0mph /  8km/h 10.0mph /  16.1km/h 61% 0.00in /  0mm
19:29 75.6 °F /  24.2 °C 61.7 °F /  16.5 °C 29.74in /  1007hPa SSW 6.0mph /  9.7km/h 8.0mph /  12.9km/h 62% 0.00in /  0mm
19:34 76.0 °F /  24.4 °C 62.0 °F /  16.7 °C 29.74in /  1007hPa South 9.0mph /  14.5km/h 9.0mph /  14.5km/h 62% 0.00in /  0mm
19:39 76.4 °F /  24.7 °C 61.5 °F /  16.4 °C 29.74in /  1007hPa SSW 8.0mph /  12.9km/h 11.0mph /  17.7km/h 60% 0.00in /  0mm
19:44 76.8 °F /  24.9 °C 61.9 °F /  16.6 °C 29.75in /  1007.3hPa South 5.0mph /  8km/h 9.0mph /  14.5km/h 60% 0.00in /  0mm
19:49 77.0 °F /  25 °C 61.6 °F /  16.4 °C 29.74in /  1007hPa South 5.0mph /  8km/h 9.0mph /  14.5km/h 59% 0.00in /  0mm
19:54 77.0 °F /  25 °C 61.6 °F /  16.4 °C 29.74in /  1007hPa South 7.0mph /  11.3km/h 8.0mph /  12.9km/h 59% 0.00in /  0mm
19:59 76.7 °F /  24.8 °C 61.3 °F /  16.3 °C 29.74in /  1007hPa SE 3.0mph /  4.8km/h 9.0mph /  14.5km/h 59% 0.00in /  0mm
20:05 76.3 °F /  24.6 °C 61.4 °F /  16.3 °C 29.74in /  1007hPa SSE 4.0mph /  6.4km/h 10.0mph /  16.1km/h 60% 0.00in /  0mm
20:10 75.7 °F /  24.3 °C 61.3 °F /  16.3 °C 29.74in /  1007hPa South 4.0mph /  6.4km/h 8.0mph /  12.9km/h 61% 0.00in /  0mm
20:15 75.2 °F /  24 °C 60.8 °F /  16 °C 29.74in /  1007hPa SSE 9.0mph /  14.5km/h 9.0mph /  14.5km/h 61% 0.00in /  0mm
20:20 74.9 °F /  23.8 °C 61.0 °F /  16.1 °C 29.74in /  1007hPa SSE 4.0mph /  6.4km/h 10.0mph /  16.1km/h 62% 0.00in /  0mm
20:25 74.6 °F /  23.7 °C 60.7 °F /  15.9 °C 29.74in /  1007hPa South 6.0mph /  9.7km/h 8.0mph /  12.9km/h 62% 0.00in /  0mm
20:30 74.5 °F /  23.6 °C 60.6 °F /  15.9 °C 29.75in /  1007.3hPa South 6.0mph /  9.7km/h 12.0mph /  19.3km/h 62% 0.00in /  0mm
20:35 74.4 °F /  23.6 °C 60.5 °F /  15.8 °C 29.74in /  1007hPa SE 3.0mph /  4.8km/h 8.0mph /  12.9km/h 62% 0.00in /  0mm
20:40 74.1 °F /  23.4 °C 60.7 °F /  15.9 °C 29.75in /  1007.3hPa SE 4.0mph /  6.4km/h 7.0mph /  11.3km/h 63% 0.00in /  0mm
20:45 73.9 °F /  23.3 °C 60.5 °F /  15.8 °C 29.75in /  1007.3hPa South 3.0mph /  4.8km/h 6.0mph /  9.7km/h 63% 0.00in /  0mm
20:50 73.6 °F /  23.1 °C 60.7 °F /  15.9 °C 29.75in /  1007.3hPa SSW 4.0mph /  6.4km/h 7.0mph /  11.3km/h 64% 0.00in /  0mm
20:55 73.3 °F /  22.9 °C 60.4 °F /  15.8 °C 29.74in /  1007hPa South 5.0mph /  8km/h 6.0mph /  9.7km/h 64% 0.00in /  0mm
21:00 73.2 °F /  22.9 °C 60.3 °F /  15.7 °C 29.74in /  1007hPa SSE 7.0mph /  11.3km/h 10.0mph /  16.1km/h 64% 0.00in /  0mm
21:05 73.2 °F /  22.9 °C 60.3 °F /  15.7 °C 29.75in /  1007.3hPa SSW 4.0mph /  6.4km/h 7.0mph /  11.3km/h 64% 0.00in /  0mm
21:10 73.2 °F /  22.9 °C 59.9 °F /  15.5 °C 29.75in /  1007.3hPa SSW 5.0mph /  8km/h 9.0mph /  14.5km/h 63% 0.00in /  0mm
21:15 73.3 °F /  22.9 °C 59.5 °F /  15.3 °C 29.75in /  1007.3hPa WSW 5.0mph /  8km/h 15.0mph /  24.1km/h 62% 0.00in /  0mm
21:16 73.3 °F /  22.9 °C 59.5 °F /  15.3 °C 29.75in /  1007.3hPa SSW 6.0mph /  9.7km/h 15.0mph /  24.1km/h 62% 0.00in /  0mm
21:21 73.3 °F /  22.9 °C 59.0 °F /  15 °C 29.75in /  1007.3hPa South 5.0mph /  8km/h 11.0mph /  17.7km/h 61% 0.00in /  0mm
21:26 73.3 °F /  22.9 °C 58.6 °F /  14.8 °C 29.76in /  1007.7hPa SSW 4.0mph /  6.4km/h 9.0mph /  14.5km/h 60% 0.00in /  0mm
21:31 73.3 °F /  22.9 °C 58.6 °F /  14.8 °C 29.76in /  1007.7hPa South 4.0mph /  6.4km/h 9.0mph /  14.5km/h 60% 0.00in /  0mm
21:36 73.3 °F /  22.9 °C 58.1 °F /  14.5 °C 29.76in /  1007.7hPa SW 4.0mph /  6.4km/h 9.0mph /  14.5km/h 59% 0.00in /  0mm
21:41 73.4 °F /  23 °C 57.7 °F /  14.3 °C 29.76in /  1007.7hPa SSW 6.0mph /  9.7km/h 14.0mph /  22.5km/h 58% 0.00in /  0mm
21:46 73.6 °F /  23.1 °C 57.9 °F /  14.4 °C 29.76in /  1007.7hPa SW 5.0mph /  8km/h 10.0mph /  16.1km/h 58% 0.00in /  0mm
21:51 73.5 °F /  23.1 °C 57.8 °F /  14.3 °C 29.75in /  1007.3hPa SSW 5.0mph /  8km/h 9.0mph /  14.5km/h 58% 0.00in /  0mm
21:56 73.6 °F /  23.1 °C 57.9 °F /  14.4 °C 29.75in /  1007.3hPa South 7.0mph /  11.3km/h 9.0mph /  14.5km/h 58% 0.00in /  0mm
22:01 73.5 °F /  23.1 °C 57.8 °F /  14.3 °C 29.75in /  1007.3hPa South 3.0mph /  4.8km/h 12.0mph /  19.3km/h 58% 0.00in /  0mm
22:06 73.4 °F /  23 °C 57.7 °F /  14.3 °C 29.76in /  1007.7hPa South 4.0mph /  6.4km/h 12.0mph /  19.3km/h 58% 0.00in /  0mm
22:11 73.2 °F /  22.9 °C 57.5 °F /  14.2 °C 29.76in /  1007.7hPa SW 10.0mph /  16.1km/h 14.0mph /  22.5km/h 58% 0.00in /  0mm
22:16 73.2 °F /  22.9 °C 57.5 °F /  14.2 °C 29.76in /  1007.7hPa SSE 5.0mph /  8km/h 13.0mph /  20.9km/h 58% 0.00in /  0mm
22:21 73.0 °F /  22.8 °C 57.4 °F /  14.1 °C 29.76in /  1007.7hPa South 5.0mph /  8km/h 11.0mph /  17.7km/h 58% 0.00in /  0mm
22:26 72.9 °F /  22.7 °C 57.3 °F /  14.1 °C 29.76in /  1007.7hPa SSW 9.0mph /  14.5km/h 10.0mph /  16.1km/h 58% 0.00in /  0mm
22:31 72.9 °F /  22.7 °C 57.3 °F /  14.1 °C 29.77in /  1008hPa SSW 8.0mph /  12.9km/h 8.0mph /  12.9km/h 58% 0.00in /  0mm
22:36 72.9 °F /  22.7 °C 57.3 °F /  14.1 °C 29.77in /  1008hPa SSW 3.0mph /  4.8km/h 11.0mph /  17.7km/h 58% 0.00in /  0mm
22:41 72.6 °F /  22.6 °C 57.5 °F /  14.2 °C 29.77in /  1008hPa SSW 4.0mph /  6.4km/h 8.0mph /  12.9km/h 59% 0.00in /  0mm
22:47 72.4 °F /  22.4 °C 57.3 °F /  14.1 °C 29.77in /  1008hPa SSW 8.0mph /  12.9km/h 9.0mph /  14.5km/h 59% 0.00in /  0mm
22:52 72.2 °F /  22.3 °C 57.6 °F /  14.2 °C 29.77in /  1008hPa SSW 3.0mph /  4.8km/h 9.0mph /  14.5km/h 60% 0.00in /  0mm
22:57 72.0 °F /  22.2 °C 57.4 °F /  14.1 °C 29.77in /  1008hPa South 5.0mph /  8km/h 10.0mph /  16.1km/h 60% 0.00in /  0mm
23:02 72.0 °F /  22.2 °C 57.4 °F /  14.1 °C 29.77in /  1008hPa SSE 6.0mph /  9.7km/h 10.0mph /  16.1km/h 60% 0.00in /  0mm
23:07 71.8 °F /  22.1 °C 57.2 °F /  14 °C 29.77in /  1008hPa SW 8.0mph /  12.9km/h 13.0mph /  20.9km/h 60% 0.00in /  0mm
23:12 71.9 °F /  22.2 °C 57.3 °F /  14.1 °C 29.76in /  1007.7hPa SSE 10.0mph /  16.1km/h 17.0mph /  27.4km/h 60% 0.00in /  0mm
23:17 71.7 °F /  22.1 °C 57.1 °F /  13.9 °C 29.76in /  1007.7hPa SSE 5.0mph /  8km/h 10.0mph /  16.1km/h 60% 0.00in /  0mm
23:22 71.5 °F /  21.9 °C 57.4 °F /  14.1 °C 29.77in /  1008hPa WSW 7.0mph /  11.3km/h 9.0mph /  14.5km/h 61% 0.00in /  0mm
23:27 71.3 °F /  21.8 °C 57.2 °F /  14 °C 29.77in /  1008hPa SSE 5.0mph /  8km/h 10.0mph /  16.1km/h 61% 0.00in /  0mm
23:32 71.1 °F /  21.7 °C 57.0 °F /  13.9 °C 29.77in /  1008hPa SW 9.0mph /  14.5km/h 12.0mph /  19.3km/h 61% 0.00in /  0mm
23:37 71.0 °F /  21.7 °C 56.9 °F /  13.8 °C 29.78in /  1008.4hPa South 7.0mph /  11.3km/h 13.0mph /  20.9km/h 61% 0.00in /  0mm
23:42 70.7 °F /  21.5 °C 57.1 °F /  13.9 °C 29.78in /  1008.4hPa SE 4.0mph /  6.4km/h 8.0mph /  12.9km/h 62% 0.00in /  0mm
23:47 70.6 °F /  21.4 °C 57.0 °F /  13.9 °C 29.77in /  1008hPa SSW 8.0mph /  12.9km/h 11.0mph /  17.7km/h 62% 0.00in /  0mm
23:52 70.6 °F /  21.4 °C 57.0 °F /  13.9 °C 29.78in /  1008.4hPa WSW 9.0mph /  14.5km/h 11.0mph /  17.7km/h 62% 0.00in /  0mm
23:57 70.5 °F /  21.4 °C 57.3 °F /  14.1 °C 29.78in /  1008.4hPa SW 6.0mph /  9.7km/h 9.0mph /  14.5km/h 63% 0.00in /  0mm
Compliments of Weather Underground